sensor_id;sensor_type;location;lat;lon;timestamp;pressure;altitude;pressure_sealevel;temperature;humidity
26657;BME280;14279;50.010;8.260;2023-03-26T00:02:10;99824.50;;;10.09;70.99
26657;BME280;14279;50.010;8.260;2023-03-26T00:08:23;99832.00;;;10.15;70.56
26657;BME280;14279;50.010;8.260;2023-03-26T00:10:49;99833.00;;;10.29;69.84
26657;BME280;14279;50.010;8.260;2023-03-26T00:13:15;99836.22;;;10.34;69.93
26657;BME280;14279;50.010;8.260;2023-03-26T00:15:53;99830.78;;;10.05;70.97
26657;BME280;14279;50.010;8.260;2023-03-26T00:18:29;99836.78;;;9.89;71.81
26657;BME280;14279;50.010;8.260;2023-03-26T00:21:00;99831.28;;;9.96;72.13
26657;BME280;14279;50.010;8.260;2023-03-26T00:23:28;99835.06;;;9.72;72.44
26657;BME280;14279;50.010;8.260;2023-03-26T00:25:54;99835.69;;;9.60;72.92
26657;BME280;14279;50.010;8.260;2023-03-26T00:28:23;99828.22;;;9.87;72.38
26657;BME280;14279;50.010;8.260;2023-03-26T00:31:00;99828.47;;;9.65;72.85
26657;BME280;14279;50.010;8.260;2023-03-26T00:33:26;99826.06;;;9.62;72.98
26657;BME280;14279;50.010;8.260;2023-03-26T00:35:57;99833.31;;;9.55;72.85
26657;BME280;14279;50.010;8.260;2023-03-26T00:38:26;99827.19;;;9.56;73.20
26657;BME280;14279;50.010;8.260;2023-03-26T00:40:51;99820.78;;;9.63;72.96
26657;BME280;14279;50.010;8.260;2023-03-26T00:43:18;99822.75;;;9.58;72.74
26657;BME280;14279;50.010;8.260;2023-03-26T00:45:48;99823.47;;;9.62;72.64
26657;BME280;14279;50.010;8.260;2023-03-26T00:48:15;99823.06;;;9.52;72.57
26657;BME280;14279;50.010;8.260;2023-03-26T00:50:42;99826.38;;;9.56;72.98
26657;BME280;14279;50.010;8.260;2023-03-26T00:53:09;99819.19;;;9.61;72.60
26657;BME280;14279;50.010;8.260;2023-03-26T00:55:41;99817.34;;;9.45;73.10
26657;BME280;14279;50.010;8.260;2023-03-26T00:58:07;99817.13;;;9.68;72.17
26657;BME280;14279;50.010;8.260;2023-03-26T01:00:38;99819.88;;;9.47;72.63
26657;BME280;14279;50.010;8.260;2023-03-26T01:03:06;99814.84;;;9.44;72.81
26657;BME280;14279;50.010;8.260;2023-03-26T01:08:16;99799.78;;;9.51;72.48
26657;BME280;14279;50.010;8.260;2023-03-26T01:10:44;99810.03;;;9.36;72.96
26657;BME280;14279;50.010;8.260;2023-03-26T01:13:16;99796.88;;;9.57;72.13
26657;BME280;14279;50.010;8.260;2023-03-26T01:15:43;99793.19;;;9.43;72.62
26657;BME280;14279;50.010;8.260;2023-03-26T01:18:13;99791.13;;;9.32;73.23
26657;BME280;14279;50.010;8.260;2023-03-26T01:20:41;99788.63;;;9.31;73.33
26657;BME280;14279;50.010;8.260;2023-03-26T01:23:11;99799.72;;;9.17;73.80
26657;BME280;14279;50.010;8.260;2023-03-26T01:25:43;99782.69;;;9.29;73.59
26657;BME280;14279;50.010;8.260;2023-03-26T01:28:14;99785.28;;;9.29;73.81
26657;BME280;14279;50.010;8.260;2023-03-26T01:30:49;99780.31;;;9.24;73.63
26657;BME280;14279;50.010;8.260;2023-03-26T01:33:36;99780.00;;;9.48;73.16
26657;BME280;14279;50.010;8.260;2023-03-26T01:36:05;99769.97;;;9.40;73.33
26657;BME280;14279;50.010;8.260;2023-03-26T01:41:24;99766.41;;;9.43;73.52
26657;BME280;14279;50.010;8.260;2023-03-26T01:44:19;99770.28;;;9.52;73.68
26657;BME280;14279;50.010;8.260;2023-03-26T01:46:41;99770.66;;;9.44;73.88
26657;BME280;14279;50.010;8.260;2023-03-26T01:49:06;99762.88;;;9.44;73.94
26657;BME280;14279;50.010;8.260;2023-03-26T01:51:38;99762.88;;;9.44;73.92
26657;BME280;14279;50.010;8.260;2023-03-26T01:54:06;99761.19;;;9.43;73.68
26657;BME280;14279;50.010;8.260;2023-03-26T02:04:58;99742.41;;;9.38;73.88
26657;BME280;14279;50.010;8.260;2023-03-26T02:07:33;99738.06;;;9.38;74.40
26657;BME280;14279;50.010;8.260;2023-03-26T02:10:08;99741.44;;;9.56;73.69
26657;BME280;14279;50.010;8.260;2023-03-26T02:12:35;99742.31;;;9.57;73.73
26657;BME280;14279;50.010;8.260;2023-03-26T02:15:02;99740.81;;;9.69;73.38
26657;BME280;14279;50.010;8.260;2023-03-26T02:17:27;99725.66;;;9.77;72.65
26657;BME280;14279;50.010;8.260;2023-03-26T02:19:54;99713.03;;;9.87;72.35
26657;BME280;14279;50.010;8.260;2023-03-26T02:22:20;99713.22;;;9.66;73.17
26657;BME280;14279;50.010;8.260;2023-03-26T02:24:46;99711.66;;;9.80;72.69
26657;BME280;14279;50.010;8.260;2023-03-26T02:27:11;99709.03;;;9.63;73.07
26657;BME280;14279;50.010;8.260;2023-03-26T02:29:37;99713.00;;;9.71;73.07
26657;BME280;14279;50.010;8.260;2023-03-26T02:32:05;99717.03;;;9.76;73.08
26657;BME280;14279;50.010;8.260;2023-03-26T02:34:30;99710.25;;;9.74;73.02
26657;BME280;14279;50.010;8.260;2023-03-26T02:36:56;99714.84;;;9.69;73.22
26657;BME280;14279;50.010;8.260;2023-03-26T02:39:22;99707.97;;;9.68;73.47
26657;BME280;14279;50.010;8.260;2023-03-26T02:41:48;99708.31;;;9.77;73.00
26657;BME280;14279;50.010;8.260;2023-03-26T02:44:13;99707.19;;;9.66;73.68
26657;BME280;14279;50.010;8.260;2023-03-26T02:46:38;99699.97;;;9.55;74.01
26657;BME280;14279;50.010;8.260;2023-03-26T02:49:03;99705.41;;;9.50;74.27
26657;BME280;14279;50.010;8.260;2023-03-26T02:51:29;99696.63;;;9.69;73.41
26657;BME280;14279;50.010;8.260;2023-03-26T02:53:59;99701.84;;;9.69;73.97
26657;BME280;14279;50.010;8.260;2023-03-26T02:56:25;99695.97;;;9.81;73.39
26657;BME280;14279;50.010;8.260;2023-03-26T02:58:50;99687.44;;;10.11;72.59
26657;BME280;14279;50.010;8.260;2023-03-26T03:01:15;99684.22;;;9.90;72.70
26657;BME280;14279;50.010;8.260;2023-03-26T03:03:42;99672.75;;;10.10;71.95
26657;BME280;14279;50.010;8.260;2023-03-26T03:06:07;99669.66;;;9.87;72.70
26657;BME280;14279;50.010;8.260;2023-03-26T03:08:33;99665.22;;;10.05;72.34
26657;BME280;14279;50.010;8.260;2023-03-26T03:11:06;99663.84;;;10.14;72.04
26657;BME280;14279;50.010;8.260;2023-03-26T03:13:32;99661.00;;;10.03;72.39
26657;BME280;14279;50.010;8.260;2023-03-26T03:15:57;99657.56;;;10.18;72.01
26657;BME280;14279;50.010;8.260;2023-03-26T03:18:22;99653.44;;;10.30;71.72
26657;BME280;14279;50.010;8.260;2023-03-26T03:20:47;99654.72;;;10.39;71.13
26657;BME280;14279;50.010;8.260;2023-03-26T03:23:13;99649.34;;;10.42;70.42
26657;BME280;14279;50.010;8.260;2023-03-26T03:25:40;99645.88;;;10.42;70.45
26657;BME280;14279;50.010;8.260;2023-03-26T03:28:06;99645.44;;;10.49;70.17
26657;BME280;14279;50.010;8.260;2023-03-26T03:30:31;99639.31;;;10.50;70.38
26657;BME280;14279;50.010;8.260;2023-03-26T03:32:56;99634.78;;;10.54;69.97
26657;BME280;14279;50.010;8.260;2023-03-26T03:35:23;99631.16;;;10.57;69.96
26657;BME280;14279;50.010;8.260;2023-03-26T03:37:48;99629.94;;;10.48;70.37
26657;BME280;14279;50.010;8.260;2023-03-26T03:40:13;99632.56;;;10.16;71.32
26657;BME280;14279;50.010;8.260;2023-03-26T03:42:39;99636.16;;;10.45;70.51
26657;BME280;14279;50.010;8.260;2023-03-26T03:45:04;99623.50;;;10.39;70.73
26657;BME280;14279;50.010;8.260;2023-03-26T03:47:30;99632.19;;;10.38;70.61
26657;BME280;14279;50.010;8.260;2023-03-26T03:49:55;99627.44;;;10.14;71.37
26657;BME280;14279;50.010;8.260;2023-03-26T03:52:24;99621.31;;;10.15;71.48
26657;BME280;14279;50.010;8.260;2023-03-26T03:54:49;99624.00;;;10.14;71.59
26657;BME280;14279;50.010;8.260;2023-03-26T03:57:15;99612.97;;;10.41;70.84
26657;BME280;14279;50.010;8.260;2023-03-26T03:59:43;99607.09;;;10.53;70.31
26657;BME280;14279;50.010;8.260;2023-03-26T04:02:09;99604.94;;;10.45;71.01
26657;BME280;14279;50.010;8.260;2023-03-26T04:04:35;99607.28;;;10.34;71.31
26657;BME280;14279;50.010;8.260;2023-03-26T04:07:02;99594.44;;;10.47;71.57
26657;BME280;14279;50.010;8.260;2023-03-26T04:09:28;99591.75;;;10.32;71.78
26657;BME280;14279;50.010;8.260;2023-03-26T04:11:53;99585.81;;;10.30;72.16
26657;BME280;14279;50.010;8.260;2023-03-26T04:14:18;99573.50;;;10.18;72.69
26657;BME280;14279;50.010;8.260;2023-03-26T04:16:44;99577.25;;;10.28;72.49
26657;BME280;14279;50.010;8.260;2023-03-26T04:19:09;99568.69;;;10.26;72.51
26657;BME280;14279;50.010;8.260;2023-03-26T04:21:34;99561.06;;;10.23;73.27
26657;BME280;14279;50.010;8.260;2023-03-26T04:24:02;99561.47;;;10.31;72.82
26657;BME280;14279;50.010;8.260;2023-03-26T04:26:29;99563.31;;;10.29;73.31
26657;BME280;14279;50.010;8.260;2023-03-26T04:28:58;99558.66;;;10.04;74.44
26657;BME280;14279;50.010;8.260;2023-03-26T04:31:25;99551.72;;;10.04;75.72
26657;BME280;14279;50.010;8.260;2023-03-26T04:33:58;99547.47;;;10.18;75.06
26657;BME280;14279;50.010;8.260;2023-03-26T04:36:30;99543.88;;;10.20;75.93
26657;BME280;14279;50.010;8.260;2023-03-26T04:38:56;99532.97;;;10.14;76.44
26657;BME280;14279;50.010;8.260;2023-03-26T04:41:23;99529.88;;;9.76;77.38
26657;BME280;14279;50.010;8.260;2023-03-26T04:43:51;99514.03;;;9.65;77.76
26657;BME280;14279;50.010;8.260;2023-03-26T04:46:16;99517.66;;;9.46;79.93
26657;BME280;14279;50.010;8.260;2023-03-26T04:48:51;99523.59;;;9.65;79.30
26657;BME280;14279;50.010;8.260;2023-03-26T04:51:18;99515.38;;;9.72;79.58
26657;BME280;14279;50.010;8.260;2023-03-26T04:53:51;99522.91;;;9.77;81.32
26657;BME280;14279;50.010;8.260;2023-03-26T04:58:58;99500.50;;;9.60;80.59
26657;BME280;14279;50.010;8.260;2023-03-26T05:01:24;99491.53;;;9.33;80.92
26657;BME280;14279;50.010;8.260;2023-03-26T05:03:54;99502.06;;;9.46;81.26
26657;BME280;14279;50.010;8.260;2023-03-26T05:06:21;99491.19;;;9.40;81.72
26657;BME280;14279;50.010;8.260;2023-03-26T05:08:46;99479.66;;;9.13;82.81
26657;BME280;14279;50.010;8.260;2023-03-26T05:11:12;99472.19;;;9.23;82.70
26657;BME280;14279;50.010;8.260;2023-03-26T05:13:37;99464.56;;;9.04;83.42
26657;BME280;14279;50.010;8.260;2023-03-26T05:16:03;99461.53;;;9.28;82.02
26657;BME280;14279;50.010;8.260;2023-03-26T05:18:28;99456.19;;;9.15;82.43
26657;BME280;14279;50.010;8.260;2023-03-26T05:20:56;99441.75;;;8.77;84.06
26657;BME280;14279;50.010;8.260;2023-03-26T05:23:21;99437.09;;;9.00;83.84
26657;BME280;14279;50.010;8.260;2023-03-26T05:25:46;99424.19;;;8.82;84.15
26657;BME280;14279;50.010;8.260;2023-03-26T05:28:12;99431.13;;;8.82;84.67
26657;BME280;14279;50.010;8.260;2023-03-26T05:30:37;99434.63;;;8.81;84.86
26657;BME280;14279;50.010;8.260;2023-03-26T05:33:03;99430.63;;;8.91;84.89
26657;BME280;14279;50.010;8.260;2023-03-26T05:35:28;99437.69;;;9.05;84.46
26657;BME280;14279;50.010;8.260;2023-03-26T05:37:53;99440.34;;;9.20;83.90
26657;BME280;14279;50.010;8.260;2023-03-26T05:40:19;99431.00;;;9.47;82.94
26657;BME280;14279;50.010;8.260;2023-03-26T05:42:45;99442.44;;;9.45;83.38
26657;BME280;14279;50.010;8.260;2023-03-26T05:45:12;99431.63;;;9.37;83.88
26657;BME280;14279;50.010;8.260;2023-03-26T05:47:38;99419.75;;;9.63;83.15
26657;BME280;14279;50.010;8.260;2023-03-26T05:50:04;99416.91;;;9.82;82.25
26657;BME280;14279;50.010;8.260;2023-03-26T05:52:30;99411.25;;;9.90;81.58
26657;BME280;14279;50.010;8.260;2023-03-26T05:54:56;99407.66;;;9.92;81.07
26657;BME280;14279;50.010;8.260;2023-03-26T05:57:21;99405.88;;;9.93;80.78
26657;BME280;14279;50.010;8.260;2023-03-26T05:59:48;99407.00;;;9.89;80.69
26657;BME280;14279;50.010;8.260;2023-03-26T06:02:13;99392.06;;;9.92;80.30
26657;BME280;14279;50.010;8.260;2023-03-26T06:04:38;99384.56;;;10.02;80.12
26657;BME280;14279;50.010;8.260;2023-03-26T06:07:06;99380.66;;;9.95;80.31
26657;BME280;14279;50.010;8.260;2023-03-26T06:09:35;99377.69;;;10.01;80.46
26657;BME280;14279;50.010;8.260;2023-03-26T06:12:03;99370.59;;;9.89;80.46
26657;BME280;14279;50.010;8.260;2023-03-26T06:14:28;99374.34;;;9.85;80.02
26657;BME280;14279;50.010;8.260;2023-03-26T06:16:54;99374.81;;;9.91;80.23
26657;BME280;14279;50.010;8.260;2023-03-26T06:19:19;99367.19;;;9.88;79.99
26657;BME280;14279;50.010;8.260;2023-03-26T06:21:44;99368.09;;;10.02;79.29
26657;BME280;14279;50.010;8.260;2023-03-26T06:24:09;99359.47;;;10.01;79.90
26657;BME280;14279;50.010;8.260;2023-03-26T06:26:35;99360.31;;;10.02;78.88
26657;BME280;14279;50.010;8.260;2023-03-26T06:29:00;99349.72;;;10.05;79.14
26657;BME280;14279;50.010;8.260;2023-03-26T06:31:25;99343.34;;;10.11;78.92
26657;BME280;14279;50.010;8.260;2023-03-26T06:33:51;99345.66;;;10.15;79.19
26657;BME280;14279;50.010;8.260;2023-03-26T06:36:17;99350.19;;;10.12;79.54
26657;BME280;14279;50.010;8.260;2023-03-26T06:38:42;99347.13;;;10.05;79.96
26657;BME280;14279;50.010;8.260;2023-03-26T06:41:07;99350.66;;;9.75;81.79
26657;BME280;14279;50.010;8.260;2023-03-26T06:43:32;99354.84;;;9.47;82.46
26657;BME280;14279;50.010;8.260;2023-03-26T06:45:59;99358.88;;;9.06;84.47
26657;BME280;14279;50.010;8.260;2023-03-26T06:48:25;99347.75;;;9.04;85.40
26657;BME280;14279;50.010;8.260;2023-03-26T06:50:50;99343.47;;;9.03;86.14
26657;BME280;14279;50.010;8.260;2023-03-26T06:53:15;99351.25;;;8.87;86.51
26657;BME280;14279;50.010;8.260;2023-03-26T06:55:41;99334.25;;;9.13;86.74
26657;BME280;14279;50.010;8.260;2023-03-26T06:58:06;99335.66;;;9.19;87.76
26657;BME280;14279;50.010;8.260;2023-03-26T07:00:31;99324.78;;;9.12;88.47
26657;BME280;14279;50.010;8.260;2023-03-26T07:02:56;99318.91;;;9.39;87.44
26657;BME280;14279;50.010;8.260;2023-03-26T07:05:21;99310.69;;;9.47;85.90
26657;BME280;14279;50.010;8.260;2023-03-26T07:07:47;99315.50;;;9.39;87.32
26657;BME280;14279;50.010;8.260;2023-03-26T07:10:12;99309.75;;;9.48;86.62
26657;BME280;14279;50.010;8.260;2023-03-26T07:12:38;99305.63;;;9.60;85.67
26657;BME280;14279;50.010;8.260;2023-03-26T07:15:03;99299.28;;;9.64;85.98
26657;BME280;14279;50.010;8.260;2023-03-26T07:17:29;99296.25;;;9.72;87.06
26657;BME280;14279;50.010;8.260;2023-03-26T07:19:54;99280.44;;;9.60;87.03
26657;BME280;14279;50.010;8.260;2023-03-26T07:22:22;99281.66;;;9.55;87.59
26657;BME280;14279;50.010;8.260;2023-03-26T07:24:48;99279.63;;;9.60;86.76
26657;BME280;14279;50.010;8.260;2023-03-26T07:30:11;99276.66;;;9.66;87.31
26657;BME280;14279;50.010;8.260;2023-03-26T07:41:23;99254.94;;;9.67;88.21
26657;BME280;14279;50.010;8.260;2023-03-26T07:44:02;99238.50;;;9.67;88.67
26657;BME280;14279;50.010;8.260;2023-03-26T07:46:31;99239.50;;;9.64;88.89
26657;BME280;14279;50.010;8.260;2023-03-26T07:48:59;99236.84;;;9.66;88.84
26657;BME280;14279;50.010;8.260;2023-03-26T07:51:26;99234.44;;;9.62;89.25
26657;BME280;14279;50.010;8.260;2023-03-26T07:53:51;99233.84;;;9.57;89.69
26657;BME280;14279;50.010;8.260;2023-03-26T07:56:29;99234.91;;;9.55;89.64
26657;BME280;14279;50.010;8.260;2023-03-26T07:59:33;99231.84;;;9.48;89.80
26657;BME280;14279;50.010;8.260;2023-03-26T08:02:32;99232.25;;;9.40;89.72
26657;BME280;14279;50.010;8.260;2023-03-26T08:05:23;99234.75;;;9.27;89.92
26657;BME280;14279;50.010;8.260;2023-03-26T08:08:02;99229.88;;;9.37;89.59
26657;BME280;14279;50.010;8.260;2023-03-26T08:15:51;99221.25;;;9.66;90.18
26657;BME280;14279;50.010;8.260;2023-03-26T08:21:29;99227.19;;;9.68;90.37
26657;BME280;14279;50.010;8.260;2023-03-26T08:24:19;99227.28;;;9.66;90.90
26657;BME280;14279;50.010;8.260;2023-03-26T08:26:59;99230.06;;;9.63;91.03
26657;BME280;14279;50.010;8.260;2023-03-26T08:29:38;99232.56;;;9.65;90.56
26657;BME280;14279;50.010;8.260;2023-03-26T08:32:16;99233.69;;;9.60;90.49
26657;BME280;14279;50.010;8.260;2023-03-26T08:34:42;99236.34;;;9.44;91.37
26657;BME280;14279;50.010;8.260;2023-03-26T08:37:08;99227.81;;;9.42;91.12
26657;BME280;14279;50.010;8.260;2023-03-26T08:39:34;99217.53;;;9.55;91.37
26657;BME280;14279;50.010;8.260;2023-03-26T08:45:11;99206.97;;;9.73;89.90
26657;BME280;14279;50.010;8.260;2023-03-26T08:48:09;99202.78;;;9.56;90.34
26657;BME280;14279;50.010;8.260;2023-03-26T08:51:05;99197.50;;;9.57;90.40
26657;BME280;14279;50.010;8.260;2023-03-26T09:02:09;99197.22;;;9.76;90.79
26657;BME280;14279;50.010;8.260;2023-03-26T09:28:53;99142.00;;;10.28;88.96
26657;BME280;14279;50.010;8.260;2023-03-26T09:33:30;99148.25;;;10.52;86.88
26657;BME280;14279;50.010;8.260;2023-03-26T09:36:19;99153.88;;;10.46;87.04
26657;BME280;14279;50.010;8.260;2023-03-26T09:42:08;99148.13;;;10.27;86.98
26657;BME280;14279;50.010;8.260;2023-03-26T09:47:29;99134.94;;;10.30;87.15
26657;BME280;14279;50.010;8.260;2023-03-26T09:50:18;99139.91;;;10.20;86.89
26657;BME280;14279;50.010;8.260;2023-03-26T09:56:20;99134.22;;;10.28;83.81
26657;BME280;14279;50.010;8.260;2023-03-26T10:01:38;99130.66;;;10.43;83.26
26657;BME280;14279;50.010;8.260;2023-03-26T10:06:59;99134.88;;;10.72;82.06
26657;BME280;14279;50.010;8.260;2023-03-26T10:09:37;99121.16;;;11.08;80.70
26657;BME280;14279;50.010;8.260;2023-03-26T10:12:14;99118.53;;;11.21;79.04
26657;BME280;14279;50.010;8.260;2023-03-26T10:17:58;99104.47;;;10.85;81.20
26657;BME280;14279;50.010;8.260;2023-03-26T10:20:54;99098.03;;;11.04;81.39
26657;BME280;14279;50.010;8.260;2023-03-26T10:23:44;99086.84;;;11.40;79.29
26657;BME280;14279;50.010;8.260;2023-03-26T10:29:02;99086.22;;;11.24;79.84
26657;BME280;14279;50.010;8.260;2023-03-26T10:31:44;99092.28;;;11.11;81.06
26657;BME280;14279;50.010;8.260;2023-03-26T10:36:50;99078.41;;;11.11;80.64
26657;BME280;14279;50.010;8.260;2023-03-26T10:42:28;99058.66;;;11.46;78.99
26657;BME280;14279;50.010;8.260;2023-03-26T10:56:24;99079.53;;;11.33;81.13
26657;BME280;14279;50.010;8.260;2023-03-26T10:58:51;99067.09;;;11.49;82.46
26657;BME280;14279;50.010;8.260;2023-03-26T11:01:35;99054.88;;;12.11;80.53
26657;BME280;14279;50.010;8.260;2023-03-26T11:09:42;99041.41;;;12.76;77.40
26657;BME280;14279;50.010;8.260;2023-03-26T11:23:39;99039.47;;;14.23;70.37
26657;BME280;14279;50.010;8.260;2023-03-26T11:26:10;99046.69;;;13.65;70.18
26657;BME280;14279;50.010;8.260;2023-03-26T11:29:02;99035.06;;;13.58;71.40
26657;BME280;14279;50.010;8.260;2023-03-26T11:34:16;99033.78;;;12.61;72.48
26657;BME280;14279;50.010;8.260;2023-03-26T11:36:49;99038.00;;;11.80;75.63
26657;BME280;14279;50.010;8.260;2023-03-26T11:39:27;99041.47;;;12.05;75.69
26657;BME280;14279;50.010;8.260;2023-03-26T11:42:20;99034.34;;;11.58;75.97
26657;BME280;14279;50.010;8.260;2023-03-26T11:44:59;99036.66;;;11.50;79.47
26657;BME280;14279;50.010;8.260;2023-03-26T11:47:40;99047.31;;;10.83;82.13
26657;BME280;14279;50.010;8.260;2023-03-26T11:50:14;99040.97;;;10.62;86.57
26657;BME280;14279;50.010;8.260;2023-03-26T11:52:40;99024.00;;;10.82;86.05
26657;BME280;14279;50.010;8.260;2023-03-26T11:55:10;99022.50;;;11.17;84.19
26657;BME280;14279;50.010;8.260;2023-03-26T11:57:36;99025.81;;;11.19;85.44
26657;BME280;14279;50.010;8.260;2023-03-26T12:00:06;99018.50;;;11.61;85.84
26657;BME280;14279;50.010;8.260;2023-03-26T12:02:44;99016.25;;;11.92;84.72
26657;BME280;14279;50.010;8.260;2023-03-26T12:05:15;99026.19;;;11.87;82.00
26657;BME280;14279;50.010;8.260;2023-03-26T12:07:54;99009.00;;;11.60;81.46
26657;BME280;14279;50.010;8.260;2023-03-26T12:12:58;99012.25;;;11.26;78.97
26657;BME280;14279;50.010;8.260;2023-03-26T12:15:24;99022.88;;;11.23;80.98
26657;BME280;14279;50.010;8.260;2023-03-26T12:17:53;98997.09;;;11.32;79.31
26657;BME280;14279;50.010;8.260;2023-03-26T12:22:56;99009.88;;;11.48;81.44
26657;BME280;14279;50.010;8.260;2023-03-26T12:25:29;99009.72;;;12.11;80.26
26657;BME280;14279;50.010;8.260;2023-03-26T12:30:25;99002.31;;;12.40;79.29
26657;BME280;14279;50.010;8.260;2023-03-26T12:32:54;98998.06;;;12.62;76.64
26657;BME280;14279;50.010;8.260;2023-03-26T12:35:25;98983.13;;;12.75;71.75
26657;BME280;14279;50.010;8.260;2023-03-26T12:37:52;98981.78;;;12.47;70.53
26657;BME280;14279;50.010;8.260;2023-03-26T12:40:32;98978.34;;;12.81;70.23
26657;BME280;14279;50.010;8.260;2023-03-26T12:43:07;98974.69;;;12.83;68.55
26657;BME280;14279;50.010;8.260;2023-03-26T12:45:47;98980.63;;;12.74;64.20
26657;BME280;14279;50.010;8.260;2023-03-26T12:48:15;98952.59;;;12.99;60.97
26657;BME280;14279;50.010;8.260;2023-03-26T12:50:52;98963.28;;;13.62;60.06
26657;BME280;14279;50.010;8.260;2023-03-26T12:56:11;98966.66;;;13.42;64.62
26657;BME280;14279;50.010;8.260;2023-03-26T12:58:57;98953.25;;;13.12;63.47
26657;BME280;14279;50.010;8.260;2023-03-26T13:01:50;98964.88;;;13.31;63.92
26657;BME280;14279;50.010;8.260;2023-03-26T13:06:56;98963.56;;;13.25;61.59
26657;BME280;14279;50.010;8.260;2023-03-26T13:47:52;98949.88;;;11.96;68.37
26657;BME280;14279;50.010;8.260;2023-03-26T13:50:41;98947.34;;;12.19;67.57
26657;BME280;14279;50.010;8.260;2023-03-26T14:14:01;98938.22;;;13.04;56.54
26657;BME280;14279;50.010;8.260;2023-03-26T14:16:47;98936.09;;;12.98;55.97
26657;BME280;14279;50.010;8.260;2023-03-26T14:22:49;98941.69;;;13.37;54.40
26657;BME280;14279;50.010;8.260;2023-03-26T14:28:47;98932.84;;;13.17;55.01
26657;BME280;14279;50.010;8.260;2023-03-26T14:31:45;98940.81;;;13.16;54.82
26657;BME280;14279;50.010;8.260;2023-03-26T14:34:38;98930.41;;;13.48;54.86
26657;BME280;14279;50.010;8.260;2023-03-26T14:37:44;98926.00;;;13.81;54.93
26657;BME280;14279;50.010;8.260;2023-03-26T14:43:34;98905.50;;;13.65;53.24
26657;BME280;14279;50.010;8.260;2023-03-26T14:46:39;98926.59;;;13.74;53.31
26657;BME280;14279;50.010;8.260;2023-03-26T14:49:28;98927.75;;;13.81;53.85
26657;BME280;14279;50.010;8.260;2023-03-26T14:52:00;98917.75;;;14.07;53.26
26657;BME280;14279;50.010;8.260;2023-03-26T14:54:30;98918.44;;;14.09;52.89
26657;BME280;14279;50.010;8.260;2023-03-26T15:00:02;98917.53;;;13.57;52.35
26657;BME280;14279;50.010;8.260;2023-03-26T15:03:04;98920.75;;;13.81;52.26
26657;BME280;14279;50.010;8.260;2023-03-26T15:28:50;98946.19;;;12.91;52.97
26657;BME280;14279;50.010;8.260;2023-03-26T15:34:56;99061.53;;;8.86;80.83
26657;BME280;14279;50.010;8.260;2023-03-26T15:49:11;99030.84;;;8.33;93.22
26657;BME280;14279;50.010;8.260;2023-03-26T15:57:14;99020.75;;;9.02;91.83
26657;BME280;14279;50.010;8.260;2023-03-26T15:59:53;99023.63;;;9.12;91.02
26657;BME280;14279;50.010;8.260;2023-03-26T16:02:44;99025.06;;;9.31;90.28
26657;BME280;14279;50.010;8.260;2023-03-26T16:05:33;99030.97;;;9.47;89.02
26657;BME280;14279;50.010;8.260;2023-03-26T16:08:15;99037.06;;;9.61;88.75
26657;BME280;14279;50.010;8.260;2023-03-26T16:10:50;99049.66;;;9.95;87.15
26657;BME280;14279;50.010;8.260;2023-03-26T16:15:48;99044.63;;;9.78;85.40
26657;BME280;14279;50.010;8.260;2023-03-26T16:18:24;99046.75;;;9.99;85.29
26657;BME280;14279;50.010;8.260;2023-03-26T16:23:54;99046.66;;;9.73;82.59
26657;BME280;14279;50.010;8.260;2023-03-26T16:34:27;99034.91;;;9.68;80.17
26657;BME280;14279;50.010;8.260;2023-03-26T16:37:04;99026.72;;;9.74;80.99
26657;BME280;14279;50.010;8.260;2023-03-26T16:42:24;99033.75;;;9.99;81.61
26657;BME280;14279;50.010;8.260;2023-03-26T16:45:09;99029.16;;;9.90;80.86
26657;BME280;14279;50.010;8.260;2023-03-26T16:47:53;99021.56;;;9.87;81.60
26657;BME280;14279;50.010;8.260;2023-03-26T16:53:21;99030.00;;;9.90;79.58
26657;BME280;14279;50.010;8.260;2023-03-26T16:56:01;99037.44;;;9.82;78.75
26657;BME280;14279;50.010;8.260;2023-03-26T16:58:55;99044.63;;;10.19;77.02
26657;BME280;14279;50.010;8.260;2023-03-26T17:01:34;99033.47;;;10.17;75.79
26657;BME280;14279;50.010;8.260;2023-03-26T17:04:15;99047.81;;;9.97;77.33
26657;BME280;14279;50.010;8.260;2023-03-26T17:06:51;99053.88;;;10.23;75.40
26657;BME280;14279;50.010;8.260;2023-03-26T17:09:27;99049.31;;;10.27;74.17
26657;BME280;14279;50.010;8.260;2023-03-26T17:12:28;99055.16;;;10.30;73.81
26657;BME280;14279;50.010;8.260;2023-03-26T17:21:18;99061.72;;;10.36;74.58
26657;BME280;14279;50.010;8.260;2023-03-26T17:24:16;99068.59;;;10.37;74.47
26657;BME280;14279;50.010;8.260;2023-03-26T17:30:24;99063.63;;;10.47;74.63
26657;BME280;14279;50.010;8.260;2023-03-26T17:35:41;99060.56;;;10.27;75.97
26657;BME280;14279;50.010;8.260;2023-03-26T17:40:55;99063.25;;;10.26;76.42
26657;BME280;14279;50.010;8.260;2023-03-26T17:43:47;99067.50;;;10.27;76.15
26657;BME280;14279;50.010;8.260;2023-03-26T17:46:35;99073.25;;;10.32;76.73
26657;BME280;14279;50.010;8.260;2023-03-26T17:51:45;99078.81;;;10.13;75.93
26657;BME280;14279;50.010;8.260;2023-03-26T17:54:33;99079.25;;;10.06;76.65
26657;BME280;14279;50.010;8.260;2023-03-26T17:57:35;99079.63;;;10.00;76.54
26657;BME280;14279;50.010;8.260;2023-03-26T17:59:58;99085.44;;;10.04;76.67
26657;BME280;14279;50.010;8.260;2023-03-26T18:02:34;99084.88;;;10.13;76.02
26657;BME280;14279;50.010;8.260;2023-03-26T18:05:02;99094.88;;;9.92;76.30
26657;BME280;14279;50.010;8.260;2023-03-26T18:10:29;99103.31;;;9.96;77.00
26657;BME280;14279;50.010;8.260;2023-03-26T18:19:21;99110.34;;;9.66;79.32
26657;BME280;14279;50.010;8.260;2023-03-26T18:21:49;99112.19;;;9.64;79.64
26657;BME280;14279;50.010;8.260;2023-03-26T18:24:32;99112.59;;;9.43;80.72
26657;BME280;14279;50.010;8.260;2023-03-26T18:27:03;99120.13;;;9.33;81.61
26657;BME280;14279;50.010;8.260;2023-03-26T18:29:31;99120.88;;;9.36;82.48
26657;BME280;14279;50.010;8.260;2023-03-26T18:32:00;99125.84;;;9.53;83.02
26657;BME280;14279;50.010;8.260;2023-03-26T18:34:29;99125.22;;;9.50;83.05
26657;BME280;14279;50.010;8.260;2023-03-26T18:37:32;99129.97;;;9.43;84.74
26657;BME280;14279;50.010;8.260;2023-03-26T18:40:09;99129.84;;;9.44;84.18
26657;BME280;14279;50.010;8.260;2023-03-26T18:42:37;99130.03;;;9.41;84.88